createdAt,value
2019-01-22T00:02:07.910Z,18.40
2019-01-22T00:04:35.247Z,19.43
2019-01-22T00:07:02.850Z,19.40
2019-01-22T00:09:30.426Z,18.13
2019-01-22T00:11:57.997Z,20.13
2019-01-22T00:14:25.243Z,19.60
2019-01-22T00:16:52.491Z,19.50
2019-01-22T00:19:19.846Z,19.20
2019-01-22T00:21:47.386Z,17.50
2019-01-22T00:24:14.665Z,18.43
2019-01-22T00:26:42.173Z,18.73
2019-01-22T00:29:09.459Z,18.57
2019-01-22T00:31:37.054Z,19.83
2019-01-22T00:34:04.410Z,19.20
2019-01-22T00:36:31.701Z,18.30
2019-01-22T00:38:58.953Z,18.17
2019-01-22T00:41:26.281Z,19.00
2019-01-22T00:43:53.995Z,16.87
2019-01-22T00:46:21.273Z,16.93
2019-01-22T00:48:48.530Z,18.53
2019-01-22T00:51:15.789Z,18.20
2019-01-22T00:53:43.141Z,19.83
2019-01-22T00:56:10.538Z,19.00
2019-01-22T00:58:38.094Z,18.37
2019-01-22T01:01:05.349Z,20.87
2019-01-22T01:03:32.634Z,17.63
2019-01-22T01:05:59.886Z,18.23
2019-01-22T01:08:27.166Z,18.90
2019-01-22T01:10:54.525Z,18.80
2019-01-22T01:13:21.787Z,19.07
2019-01-22T01:15:49.098Z,19.43
2019-01-22T01:18:16.406Z,18.23
2019-01-22T01:20:43.726Z,17.37
2019-01-22T01:23:16.796Z,19.83
2019-01-22T01:25:40.238Z,17.83
2019-01-22T01:28:07.561Z,17.57
2019-01-22T01:30:35.457Z,18.97
2019-01-22T01:33:02.857Z,18.67
2019-01-22T01:35:30.397Z,18.90
2019-01-22T01:37:57.730Z,18.13
2019-01-22T01:40:25.091Z,18.13
2019-01-22T01:42:52.413Z,19.00
2019-01-22T01:45:20.010Z,19.67
2019-01-22T01:47:47.290Z,20.00
2019-01-22T01:50:15.418Z,19.37
2019-01-22T01:52:42.960Z,21.93
2019-01-22T01:55:11.254Z,18.93
2019-01-22T01:57:38.802Z,21.30
2019-01-22T02:00:10.658Z,19.67
2019-01-22T02:02:37.915Z,20.33
2019-01-22T02:05:05.736Z,20.00
2019-01-22T02:07:33.085Z,22.47
2019-01-22T02:10:00.361Z,19.67
2019-01-22T02:12:29.419Z,18.63
2019-01-22T02:14:56.742Z,17.70
2019-01-22T02:17:31.974Z,18.70
2019-01-22T02:20:00.839Z,18.83
2019-01-22T02:22:29.734Z,19.00
2019-01-22T02:25:01.370Z,19.95
2019-01-22T02:27:30.195Z,18.30
2019-01-22T02:29:59.055Z,18.00
2019-01-22T02:32:27.946Z,18.57
2019-01-22T02:34:56.769Z,18.23
2019-01-22T02:37:34.645Z,19.90
2019-01-22T02:40:03.745Z,18.93
2019-01-22T02:42:32.570Z,19.50
2019-01-22T02:45:13.151Z,20.30
2019-01-22T02:47:41.967Z,21.03
2019-01-22T02:50:27.268Z,18.77
2019-01-22T02:52:56.090Z,19.70
2019-01-22T02:55:24.973Z,18.60
2019-01-22T02:58:11.643Z,20.03
2019-01-22T03:00:52.565Z,21.20
2019-01-22T03:03:33.078Z,19.83
2019-01-22T03:06:04.609Z,22.43
2019-01-22T03:08:39.274Z,21.27
2019-01-22T03:11:08.179Z,21.13
2019-01-22T03:13:45.852Z,20.60
2019-01-22T03:16:26.717Z,21.43
2019-01-22T03:18:55.768Z,21.93
2019-01-22T03:21:27.553Z,20.77
2019-01-22T03:24:02.087Z,24.07
2019-01-22T03:26:45.689Z,22.53
2019-01-22T03:29:14.482Z,24.07
2019-01-22T03:31:51.983Z,22.23
2019-01-22T03:34:21.028Z,25.10
2019-01-22T03:36:50.173Z,21.77
2019-01-22T03:39:21.910Z,23.33
2019-01-22T03:41:50.736Z,24.50
2019-01-22T03:44:25.193Z,23.20
2019-01-22T03:47:10.714Z,22.93
2019-01-22T03:49:39.517Z,19.80
2019-01-22T03:52:08.313Z,23.97
2019-01-22T03:54:37.134Z,24.60
2019-01-22T03:57:08.908Z,21.80
2019-01-22T03:59:36.205Z,24.60
2019-01-22T04:02:03.576Z,25.17
2019-01-22T04:04:31.146Z,23.13
2019-01-22T04:06:58.395Z,24.00
2019-01-22T04:09:27.402Z,25.20
2019-01-22T04:11:54.755Z,23.63
2019-01-22T04:14:22.069Z,23.37
2019-01-22T04:16:49.433Z,25.13
2019-01-22T04:19:17.092Z,29.03
2019-01-22T04:21:44.371Z,26.83
2019-01-22T04:24:25.345Z,26.33
2019-01-22T04:27:02.904Z,25.50
2019-01-22T04:29:34.643Z,23.47
2019-01-22T04:32:06.186Z,24.60
2019-01-22T04:34:40.906Z,23.80
2019-01-22T04:37:15.639Z,22.40
2019-01-22T04:39:44.464Z,22.87
2019-01-22T04:42:19.269Z,21.40
2019-01-22T04:44:56.935Z,20.07
2019-01-22T04:47:37.872Z,20.70
2019-01-22T04:50:21.998Z,21.43
2019-01-22T04:52:51.041Z,20.97
2019-01-22T04:55:22.529Z,19.30
2019-01-22T04:57:51.402Z,20.37
2019-01-22T05:00:20.266Z,20.20
2019-01-22T05:02:51.806Z,22.63
2019-01-22T05:05:23.544Z,21.93
2019-01-22T05:07:58.250Z,22.10
2019-01-22T05:10:32.996Z,23.50
2019-01-22T05:13:04.536Z,20.70
2019-01-22T05:15:39.490Z,19.73
2019-01-22T05:18:23.199Z,22.85
2019-01-22T05:21:08.194Z,25.40
2019-01-22T05:23:40.062Z,22.77
2019-01-22T05:26:09.165Z,20.80
2019-01-22T05:28:37.987Z,21.77
2019-01-22T05:31:06.805Z,22.33
2019-01-22T05:33:35.665Z,20.23
2019-01-22T05:36:04.491Z,24.83
2019-01-22T05:38:33.291Z,24.65
2019-01-22T05:41:04.823Z,70.77
2019-01-22T05:43:33.650Z,50.52
2019-01-22T05:46:19.018Z,30.47
2019-01-22T05:48:50.750Z,53.87
2019-01-22T05:51:19.579Z,45.10
2019-01-22T05:53:51.288Z,54.47
2019-01-22T05:56:26.002Z,49.50
2019-01-22T05:59:09.589Z,56.67
2019-01-22T06:01:38.403Z,53.77
2019-01-22T06:04:10.159Z,64.87
2019-01-22T06:06:38.981Z,41.02
2019-01-22T06:09:10.677Z,26.10
2019-01-22T06:11:42.433Z,28.50
2019-01-22T06:14:19.934Z,33.83
2019-01-22T06:17:06.841Z,32.27
2019-01-22T06:19:35.629Z,29.37
2019-01-22T06:22:10.120Z,33.50
2019-01-22T06:24:57.050Z,28.60
2019-01-22T06:27:25.505Z,34.00
2019-01-22T06:30:00.490Z,32.07
2019-01-22T06:32:38.214Z,28.50
2019-01-22T06:35:10.260Z,31.52
2019-01-22T06:37:51.002Z,33.23
2019-01-22T06:40:22.471Z,36.33
2019-01-22T06:42:51.362Z,31.90
2019-01-22T06:45:22.830Z,30.32
2019-01-22T06:47:54.834Z,28.87
2019-01-22T06:50:32.338Z,32.73
2019-01-22T06:53:01.159Z,29.77
2019-01-22T06:55:29.961Z,39.55
2019-01-22T06:58:10.702Z,31.05
2019-01-22T07:00:45.154Z,31.48
2019-01-22T07:03:29.305Z,30.23
2019-01-22T07:06:07.141Z,32.85
2019-01-22T07:08:45.229Z,36.30
2019-01-22T07:11:30.315Z,37.00
2019-01-22T07:14:02.093Z,29.85
2019-01-22T07:16:33.576Z,30.20
2019-01-22T07:19:02.389Z,28.40
2019-01-22T07:21:37.138Z,31.00
2019-01-22T07:24:05.954Z,31.87
2019-01-22T07:26:51.293Z,30.73
2019-01-22T07:29:22.774Z,27.50
2019-01-22T07:31:54.485Z,29.77
2019-01-22T07:34:39.924Z,29.87
2019-01-22T07:37:14.448Z,32.40
2019-01-22T07:39:45.950Z,34.50
2019-01-22T07:42:14.814Z,32.17
2019-01-22T07:44:46.558Z,32.60
2019-01-22T07:47:15.593Z,37.30
2019-01-22T07:49:44.484Z,33.33
2019-01-22T07:52:13.273Z,34.33
2019-01-22T07:54:53.674Z,33.30
2019-01-22T07:57:35.339Z,34.33
2019-01-22T08:00:07.309Z,31.07
2019-01-22T08:02:52.570Z,36.20
2019-01-22T08:05:31.796Z,31.17
2019-01-22T08:08:04.883Z,32.00
2019-01-22T08:10:33.701Z,32.03
2019-01-22T08:13:17.547Z,32.20
2019-01-22T08:15:46.357Z,30.80
2019-01-22T08:18:15.148Z,31.57
2019-01-22T08:20:44.049Z,31.10
2019-01-22T08:23:13.090Z,32.67
2019-01-22T08:25:48.086Z,29.30
2019-01-22T08:28:33.429Z,28.70
2019-01-22T08:31:02.497Z,31.60
2019-01-22T08:33:37.206Z,24.73
2019-01-22T08:36:06.032Z,25.80
2019-01-22T08:38:40.469Z,22.70
2019-01-22T08:41:09.290Z,24.27
2019-01-22T08:43:38.078Z,25.77
2019-01-22T08:46:06.869Z,23.40
2019-01-22T08:48:35.692Z,23.37
2019-01-22T08:51:07.412Z,21.90
2019-01-22T08:53:54.030Z,25.10
2019-01-22T08:56:25.631Z,22.97
2019-01-22T08:58:54.454Z,22.73
2019-01-22T09:01:23.281Z,21.27
2019-01-22T09:04:01.104Z,23.43
2019-01-22T09:06:29.921Z,22.80
2019-01-22T09:08:58.735Z,22.63
2019-01-22T09:11:30.798Z,22.43
2019-01-22T09:14:08.368Z,22.13
2019-01-22T09:16:39.835Z,21.63
2019-01-22T09:19:08.623Z,22.80
2019-01-22T09:21:43.594Z,25.60
2019-01-22T09:24:18.419Z,25.20
2019-01-22T09:26:47.236Z,22.67
2019-01-22T09:29:22.505Z,23.93
2019-01-22T09:31:57.329Z,24.90
2019-01-22T09:34:41.141Z,23.77
2019-01-22T09:37:09.961Z,21.10
2019-01-22T09:39:37.463Z,23.70
2019-01-22T09:42:04.806Z,24.27
2019-01-22T09:44:32.142Z,24.00
2019-01-22T09:46:59.421Z,25.57
2019-01-22T09:49:26.694Z,24.70
2019-01-22T09:51:53.980Z,25.10
2019-01-22T09:54:21.225Z,24.57
2019-01-22T09:56:48.513Z,24.80
2019-01-22T09:59:15.781Z,25.80
2019-01-22T10:01:43.135Z,25.63
2019-01-22T10:04:10.421Z,23.87
2019-01-22T10:06:37.674Z,25.07
2019-01-22T10:09:06.714Z,26.53
2019-01-22T10:11:33.993Z,26.20
2019-01-22T10:14:01.250Z,23.73
2019-01-22T10:16:28.526Z,23.80
2019-01-22T10:18:55.815Z,23.77
2019-01-22T10:21:23.090Z,24.07
2019-01-22T10:23:50.341Z,25.37
2019-01-22T10:26:17.613Z,24.40
2019-01-22T10:28:44.861Z,24.40
2019-01-22T10:31:12.146Z,24.17
2019-01-22T10:33:39.393Z,22.83
2019-01-22T10:36:06.673Z,26.47
2019-01-22T10:38:33.925Z,23.63
2019-01-22T10:41:01.218Z,21.50
2019-01-22T10:43:28.462Z,25.17
2019-01-22T10:45:55.993Z,24.60
2019-01-22T10:48:23.273Z,22.90
2019-01-22T10:50:50.770Z,22.60
2019-01-22T10:53:18.290Z,22.53
2019-01-22T10:55:45.639Z,22.83
2019-01-22T10:58:12.886Z,25.07
2019-01-22T11:00:40.325Z,20.97
2019-01-22T11:03:08.896Z,23.73
2019-01-22T11:05:37.079Z,24.33
2019-01-22T11:08:04.661Z,25.43
2019-01-22T11:10:31.922Z,28.30
2019-01-22T11:12:59.514Z,26.50
2019-01-22T11:15:27.973Z,25.73
2019-01-22T11:17:55.526Z,25.30
2019-01-22T11:20:27.281Z,26.40
2019-01-22T11:22:54.859Z,24.43
2019-01-22T11:25:23.542Z,24.23
2019-01-22T11:27:50.785Z,25.13
2019-01-22T11:30:19.239Z,22.70
2019-01-22T11:32:46.838Z,23.80
2019-01-22T11:35:15.584Z,22.80
2019-01-22T11:37:42.836Z,21.80
2019-01-22T11:40:11.657Z,23.40
2019-01-22T11:42:38.901Z,22.73
2019-01-22T11:45:07.064Z,22.57
2019-01-22T11:47:34.306Z,22.40
2019-01-22T11:50:01.559Z,21.87
2019-01-22T11:52:29.077Z,25.17
2019-01-22T11:54:56.329Z,23.70
2019-01-22T11:57:23.610Z,23.00
2019-01-22T11:59:50.893Z,22.93
2019-01-22T12:02:18.141Z,23.17
2019-01-22T12:04:45.418Z,26.87
2019-01-22T12:07:12.934Z,27.07
2019-01-22T12:09:40.480Z,23.30
2019-01-22T12:12:07.825Z,21.90
2019-01-22T12:14:35.322Z,22.77
2019-01-22T12:17:02.601Z,20.80
2019-01-22T12:19:29.850Z,22.60
2019-01-22T12:21:57.163Z,23.33
2019-01-22T12:24:24.537Z,21.13
2019-01-22T12:26:51.817Z,22.67
2019-01-22T12:29:19.069Z,24.27
2019-01-22T12:31:46.349Z,21.30
2019-01-22T12:34:13.598Z,21.33
2019-01-22T12:36:40.873Z,23.03
2019-01-22T12:39:08.449Z,22.47
2019-01-22T12:41:35.747Z,21.83
2019-01-22T12:44:03.419Z,20.70
2019-01-22T12:46:30.670Z,23.60
2019-01-22T12:48:57.944Z,22.97
2019-01-22T12:51:25.197Z,21.30
2019-01-22T12:53:52.476Z,22.87
2019-01-22T12:56:19.730Z,22.93
2019-01-22T12:58:47.014Z,21.43
2019-01-22T13:01:14.260Z,22.10
2019-01-22T13:03:41.550Z,24.93
2019-01-22T13:06:08.809Z,19.80
2019-01-22T13:08:36.327Z,20.97
2019-01-22T13:11:03.600Z,22.50
2019-01-22T13:13:30.859Z,22.57
2019-01-22T13:15:58.133Z,27.30
2019-01-22T13:18:25.389Z,26.63
2019-01-22T13:20:52.688Z,22.50
2019-01-22T13:23:20.245Z,20.03
2019-01-22T13:25:47.594Z,22.87
2019-01-22T13:28:14.845Z,23.40
2019-01-22T13:30:42.150Z,23.30
2019-01-22T13:33:09.697Z,20.80
2019-01-22T13:35:36.982Z,24.03
2019-01-22T13:38:04.325Z,23.27
2019-01-22T13:40:31.578Z,21.77
2019-01-22T13:42:58.853Z,21.60
2019-01-22T13:45:27.477Z,22.87
2019-01-22T13:47:55.230Z,21.27
2019-01-22T13:50:22.734Z,21.27
2019-01-22T13:52:50.002Z,26.07
2019-01-22T13:55:18.732Z,23.67
2019-01-22T13:57:46.023Z,25.67
2019-01-22T14:00:17.491Z,24.87
2019-01-22T14:02:44.741Z,24.63
2019-01-22T14:05:12.018Z,23.23
2019-01-22T14:07:39.537Z,23.70
2019-01-22T14:10:10.865Z,23.27
2019-01-22T14:12:38.117Z,26.03
2019-01-22T14:15:06.938Z,26.07
2019-01-22T14:17:34.270Z,25.40
2019-01-22T14:20:01.559Z,25.70
2019-01-22T14:22:29.058Z,26.87
2019-01-22T14:24:56.329Z,25.83
2019-01-22T14:27:23.583Z,27.40
2019-01-22T14:29:50.860Z,23.87
2019-01-22T14:32:18.118Z,24.97
2019-01-22T14:34:46.243Z,26.50
2019-01-22T14:37:13.519Z,25.47
2019-01-22T14:39:40.797Z,26.43
2019-01-22T14:42:08.082Z,25.90
2019-01-22T14:44:35.329Z,25.73
2019-01-22T14:47:02.605Z,27.50
2019-01-22T14:49:29.857Z,27.57
2019-01-22T14:51:57.154Z,26.43
2019-01-22T14:54:24.405Z,26.63
2019-01-22T14:56:51.658Z,29.30
2019-01-22T14:59:18.938Z,29.20
2019-01-22T15:01:46.194Z,26.90
2019-01-22T15:04:13.451Z,27.40
2019-01-22T15:06:40.812Z,27.80
2019-01-22T15:09:08.305Z,28.77
2019-01-22T15:11:35.587Z,28.20
2019-01-22T15:14:02.834Z,26.30
2019-01-22T15:16:30.353Z,25.67
2019-01-22T15:18:57.604Z,26.87
2019-01-22T15:21:24.889Z,26.63
2019-01-22T15:23:52.174Z,27.70
2019-01-22T15:26:19.673Z,28.47
2019-01-22T15:28:46.965Z,27.20
2019-01-22T15:31:14.355Z,27.50
2019-01-22T15:33:41.634Z,39.10
2019-01-22T15:36:08.921Z,28.50
2019-01-22T15:38:36.421Z,29.37
2019-01-22T15:41:03.701Z,31.93
2019-01-22T15:43:30.948Z,26.03
2019-01-22T15:45:58.234Z,29.13
2019-01-22T15:48:25.514Z,28.00
2019-01-22T15:50:52.795Z,29.50
2019-01-22T15:53:20.046Z,28.40
2019-01-22T15:55:48.252Z,28.60
2019-01-22T15:58:15.722Z,29.50
2019-01-22T16:00:43.078Z,31.43
2019-01-22T16:03:10.335Z,29.03
2019-01-22T16:05:37.611Z,28.47
2019-01-22T16:08:06.527Z,30.43
2019-01-22T16:10:33.981Z,29.80
2019-01-22T16:13:01.270Z,28.63
2019-01-22T16:15:28.838Z,30.50
2019-01-22T16:17:56.438Z,27.67
2019-01-22T16:20:24.585Z,27.53
2019-01-22T16:22:51.837Z,28.87
2019-01-22T16:25:19.451Z,29.63
2019-01-22T16:27:46.700Z,30.47
2019-01-22T16:30:18.103Z,30.80
2019-01-22T16:32:45.621Z,29.87
2019-01-22T16:35:14.169Z,33.33
2019-01-22T16:37:41.456Z,31.20
2019-01-22T16:40:10.235Z,29.63
2019-01-22T16:42:37.745Z,29.63
2019-01-22T16:45:06.810Z,32.40
2019-01-22T16:47:34.307Z,30.80
2019-01-22T16:50:01.649Z,32.23
2019-01-22T16:52:28.909Z,29.20
2019-01-22T16:54:56.442Z,28.83
2019-01-22T16:57:23.694Z,29.97
2019-01-22T16:59:51.202Z,32.33
2019-01-22T17:02:18.714Z,28.03
2019-01-22T17:04:45.966Z,30.70
2019-01-22T17:07:13.252Z,29.63
2019-01-22T17:09:40.501Z,28.50
2019-01-22T17:12:08.010Z,32.10
2019-01-22T17:14:35.354Z,28.70
2019-01-22T17:17:02.625Z,27.80
2019-01-22T17:19:29.896Z,33.53
2019-01-22T17:21:57.242Z,29.60
2019-01-22T17:24:24.825Z,28.90
2019-01-22T17:26:52.154Z,28.70
2019-01-22T17:29:19.663Z,30.47
2019-01-22T17:32:04.596Z,30.63
2019-01-22T17:34:34.136Z,26.73
2019-01-22T17:37:01.627Z,27.40
2019-01-22T17:39:28.927Z,27.43
2019-01-22T17:41:56.181Z,29.57
2019-01-22T17:44:23.669Z,29.43
2019-01-22T17:46:50.947Z,28.03
2019-01-22T17:49:18.231Z,30.90
2019-01-22T17:51:45.486Z,27.33
2019-01-22T17:54:13.013Z,27.60
2019-01-22T17:56:40.253Z,31.23
2019-01-22T17:59:07.539Z,31.20
2019-01-22T18:01:35.033Z,34.53
2019-01-22T18:04:02.309Z,28.80
2019-01-22T18:06:29.568Z,29.93
2019-01-22T18:08:57.100Z,29.40
2019-01-22T18:11:24.705Z,27.33
2019-01-22T18:13:52.229Z,27.13
2019-01-22T18:16:19.723Z,27.53
2019-01-22T18:18:47.006Z,25.50
2019-01-22T18:21:14.260Z,27.43
2019-01-22T18:23:41.533Z,28.47
2019-01-22T18:26:08.819Z,27.17
2019-01-22T18:28:36.169Z,26.70
2019-01-22T18:31:03.454Z,29.33
2019-01-22T18:33:30.706Z,27.23
2019-01-22T18:35:57.993Z,27.63
2019-01-22T18:38:25.245Z,26.57
2019-01-22T18:40:52.499Z,28.57
2019-01-22T18:43:19.777Z,28.60
2019-01-22T18:45:47.277Z,26.83
2019-01-22T18:48:14.560Z,27.10
2019-01-22T18:50:41.861Z,25.83
2019-01-22T18:53:09.168Z,26.07
2019-01-22T18:55:36.705Z,25.77
2019-01-22T18:58:04.057Z,27.27
2019-01-22T19:00:31.579Z,25.60
2019-01-22T19:02:59.095Z,27.07
2019-01-22T19:05:26.370Z,23.97
2019-01-22T19:07:53.722Z,23.63
2019-01-22T19:10:22.540Z,23.27
2019-01-22T19:12:50.045Z,24.10
2019-01-22T19:15:17.766Z,24.87
2019-01-22T19:17:45.055Z,27.10
2019-01-22T19:20:12.973Z,25.40
2019-01-22T19:22:40.250Z,24.37
2019-01-22T19:25:09.322Z,23.47
2019-01-22T19:27:36.841Z,23.37
2019-01-22T19:30:08.537Z,25.30
2019-01-22T19:32:35.838Z,24.20
2019-01-22T19:35:03.446Z,26.40
2019-01-22T19:37:30.988Z,24.60
2019-01-22T19:39:58.270Z,24.10
2019-01-22T19:42:25.766Z,24.27
2019-01-22T19:44:53.054Z,22.83
2019-01-22T19:47:20.330Z,24.30
2019-01-22T19:49:47.614Z,24.00
2019-01-22T19:52:14.889Z,22.90
2019-01-22T19:54:42.162Z,23.70
2019-01-22T19:57:09.416Z,25.93
2019-01-22T19:59:36.942Z,24.70
2019-01-22T20:02:05.204Z,23.57
2019-01-22T20:04:32.493Z,26.00
2019-01-22T20:06:59.770Z,26.63
2019-01-22T20:09:27.127Z,24.83
2019-01-22T20:11:54.677Z,23.00
2019-01-22T20:14:21.935Z,20.93
2019-01-22T20:16:49.205Z,25.47
2019-01-22T20:19:16.750Z,28.90
2019-01-22T20:21:44.101Z,23.13
2019-01-22T20:24:11.374Z,23.13
2019-01-22T20:26:38.626Z,24.87
2019-01-22T20:29:06.153Z,27.10
2019-01-22T20:31:33.690Z,25.97
2019-01-22T20:34:00.950Z,23.17
2019-01-22T20:36:28.231Z,24.70
2019-01-22T20:38:55.517Z,24.20
2019-01-22T20:41:22.797Z,26.03
2019-01-22T20:43:50.042Z,23.23
2019-01-22T20:46:17.461Z,24.43
2019-01-22T20:48:44.982Z,24.23
2019-01-22T20:51:12.686Z,23.90
2019-01-22T20:53:39.963Z,24.67
2019-01-22T20:56:07.497Z,24.10
2019-01-22T20:58:40.565Z,25.67
2019-01-22T21:01:03.917Z,24.70
2019-01-22T21:03:31.456Z,24.47
2019-01-22T21:05:58.778Z,23.67
2019-01-22T21:08:26.129Z,23.73
2019-01-22T21:10:53.386Z,23.90
2019-01-22T21:13:20.657Z,24.63
2019-01-22T21:15:47.938Z,28.60
2019-01-22T21:18:15.222Z,23.80
2019-01-22T21:20:42.477Z,24.23
2019-01-22T21:23:09.763Z,27.90
2019-01-22T21:25:37.263Z,27.33
2019-01-22T21:28:04.717Z,21.40
2019-01-22T21:30:33.105Z,21.90
2019-01-22T21:33:00.525Z,21.30
2019-01-22T21:35:27.805Z,23.50
2019-01-22T21:37:55.097Z,23.53
2019-01-22T21:40:22.344Z,23.40
2019-01-22T21:42:49.732Z,22.63
2019-01-22T21:45:20.838Z,20.87
2019-01-22T21:47:48.366Z,22.17
2019-01-22T21:50:16.060Z,24.70
2019-01-22T21:52:43.415Z,24.87
2019-01-22T21:55:14.657Z,44.00
2019-01-22T21:57:42.186Z,27.67
2019-01-22T22:00:14.167Z,21.87
2019-01-22T22:02:41.449Z,29.80
2019-01-22T22:05:09.538Z,28.03
2019-01-22T22:07:36.826Z,23.97
2019-01-22T22:10:05.618Z,28.73
2019-01-22T22:12:32.899Z,29.13
2019-01-22T22:15:00.276Z,26.90
2019-01-22T22:17:27.590Z,29.10
2019-01-22T22:19:54.842Z,30.33
2019-01-22T22:22:22.099Z,30.40
2019-01-22T22:24:49.373Z,25.60
2019-01-22T22:27:16.647Z,29.27
2019-01-22T22:29:43.930Z,28.10
2019-01-22T22:32:11.173Z,28.20
2019-01-22T22:34:38.771Z,26.90
2019-01-22T22:37:06.267Z,26.70
2019-01-22T22:39:33.792Z,23.60
2019-01-22T22:42:01.049Z,26.40
2019-01-22T22:44:28.589Z,28.10
2019-01-22T22:46:55.842Z,25.50
2019-01-22T22:49:23.122Z,24.33
2019-01-22T22:51:50.479Z,27.20
2019-01-22T22:54:17.826Z,26.80
2019-01-22T22:56:45.103Z,28.70
2019-01-22T22:59:12.374Z,30.10
2019-01-22T23:01:39.659Z,29.63
2019-01-22T23:04:06.909Z,32.63
2019-01-22T23:06:34.163Z,30.40
2019-01-22T23:09:01.718Z,30.30
2019-01-22T23:11:28.965Z,27.37
2019-01-22T23:13:56.245Z,27.90
2019-01-22T23:16:23.809Z,26.33
2019-01-22T23:18:51.087Z,26.10
2019-01-22T23:21:18.417Z,28.93
2019-01-22T23:23:45.694Z,27.70
2019-01-22T23:26:12.949Z,26.00
2019-01-22T23:28:40.482Z,27.03
2019-01-22T23:31:07.993Z,26.67
2019-01-22T23:33:35.482Z,26.17
2019-01-22T23:36:02.762Z,27.63
2019-01-22T23:38:30.033Z,25.87
2019-01-22T23:40:57.369Z,27.63
2019-01-22T23:43:24.709Z,28.37
2019-01-22T23:45:51.998Z,26.40
2019-01-22T23:48:19.249Z,28.17
2019-01-22T23:50:46.746Z,27.63
2019-01-22T23:53:14.026Z,28.87
2019-01-22T23:55:41.546Z,28.07
2019-01-22T23:58:08.902Z,29.70
